Aérodrome :
LOGIN :

S'inscrire | Disclaimer

   EN    FR    IT 

 










Légende :    VFR   VFR Marginal   IFR   IFR Intensif   IFR Très Intensif
Visi : 
Plafond : 
>= 8 km
>= 3000ft
5 à 8 km
1000 à 3000 ft
1500m à 5 km
500 à 1000 ft
800 à 1500m
200 à 500 ft
< 800m
< 200 ft
Symboles :   Orages  Brouillard  Fortes neiges  Fortes précipitations  Vent > 20 kt
SIGMETs :   Divers  Orages  Givrage  Turbulence  Onde Orograph.  Cendres Volcan.






- Altitude de l'aérodrome : 325 ft
- Code IATA : BES


LFRB - Brest

DERNIER METAR :
  • 160700Z AUTO 17006KT 9999 FEW003 SCT110 08/07 Q1000 TEMPO 4000 -RADZ OVC006

METARs EXPIRÉS :
  • 160630Z AUTO 16006KT CAVOK 08/07 Q1000 TEMPO 4000 -RADZ OVC006
  • 160600Z AUTO 16007KT CAVOK 08/07 Q0999 TEMPO 4000 -RADZ OVC006
  • 160530Z AUTO 16006KT 9999 FEW016 BKN094 08/07 Q1000 TEMPO 4000 -RADZ OVC006
  • 160500Z AUTO 16007KT CAVOK 08/07 Q1000 TEMPO SHRA SCT018CB
  • 160430Z AUTO 16006KT CAVOK 08/07 Q0999 TEMPO SHRA SCT018CB

TAF TAF LFRB
Valide du 16 à 06h jusqu'au 17 à 12h UTC


160500Z 1606/1712 16007KT 9999 SCT015 BKN025
TEMPO 1606/1712 OVC010
PROB40
TEMPO 1606/1712 4000 -RADZ OVC006
ATIS : +33 2 98 32 02 71



MET'MAP, la Météo Aéronautique d'un coup d'oeil ! - Copyright ORBIFLY Décembre 2007 - Disclaimer

ORBIFLY MET'MAP TEAM :

Programmation & Développement : Alexandra Zaïnal
Sur une idée originale de : Baudouin d'Aumeries
Assistance à la programmation : Marc-Olivier Méhu
Soutien technique & logistique : Manuel Goepfert

Contact : metmap@orbifly.com




SOURCES & CREDITS :

   NOAA